sensor_id;sensor_type;location;lat;lon;timestamp;P1;durP1;ratioP1;P2;durP2;ratioP2
19727;SDS011;10015;52.530;13.390;2024-01-15T00:00:49;13.33;;;6.27;;
19727;SDS011;10015;52.530;13.390;2024-01-15T00:03:15;12.97;;;5.97;;
19727;SDS011;10015;52.530;13.390;2024-01-15T00:05:41;12.40;;;6.30;;
19727;SDS011;10015;52.530;13.390;2024-01-15T00:08:07;12.93;;;6.33;;
19727;SDS011;10015;52.530;13.390;2024-01-15T00:10:33;14.43;;;6.73;;
19727;SDS011;10015;52.530;13.390;2024-01-15T00:12:59;12.70;;;6.50;;
19727;SDS011;10015;52.530;13.390;2024-01-15T00:15:24;11.47;;;6.23;;
19727;SDS011;10015;52.530;13.390;2024-01-15T00:17:53;11.47;;;6.40;;
19727;SDS011;10015;52.530;13.390;2024-01-15T00:20:19;12.83;;;6.03;;
19727;SDS011;10015;52.530;13.390;2024-01-15T00:22:45;13.83;;;6.13;;
19727;SDS011;10015;52.530;13.390;2024-01-15T00:25:10;11.53;;;6.10;;
19727;SDS011;10015;52.530;13.390;2024-01-15T00:27:36;15.03;;;7.00;;
19727;SDS011;10015;52.530;13.390;2024-01-15T00:30:02;11.33;;;5.90;;
19727;SDS011;10015;52.530;13.390;2024-01-15T00:32:29;12.53;;;6.40;;
19727;SDS011;10015;52.530;13.390;2024-01-15T00:34:56;13.43;;;6.43;;
19727;SDS011;10015;52.530;13.390;2024-01-15T00:37:22;13.73;;;6.63;;
19727;SDS011;10015;52.530;13.390;2024-01-15T00:39:48;16.30;;;6.87;;
19727;SDS011;10015;52.530;13.390;2024-01-15T00:42:14;13.37;;;6.23;;
19727;SDS011;10015;52.530;13.390;2024-01-15T00:44:40;13.97;;;6.10;;
19727;SDS011;10015;52.530;13.390;2024-01-15T00:47:07;12.33;;;6.23;;
19727;SDS011;10015;52.530;13.390;2024-01-15T00:49:33;13.50;;;6.17;;
19727;SDS011;10015;52.530;13.390;2024-01-15T00:51:59;12.83;;;6.27;;
19727;SDS011;10015;52.530;13.390;2024-01-15T00:54:24;13.23;;;6.10;;
19727;SDS011;10015;52.530;13.390;2024-01-15T00:56:50;14.50;;;6.20;;
19727;SDS011;10015;52.530;13.390;2024-01-15T00:59:16;12.63;;;6.17;;
19727;SDS011;10015;52.530;13.390;2024-01-15T01:01:43;11.33;;;5.90;;
19727;SDS011;10015;52.530;13.390;2024-01-15T01:04:09;11.73;;;5.80;;
19727;SDS011;10015;52.530;13.390;2024-01-15T01:06:35;14.17;;;6.20;;
19727;SDS011;10015;52.530;13.390;2024-01-15T01:09:01;12.50;;;5.80;;
19727;SDS011;10015;52.530;13.390;2024-01-15T01:11:27;12.60;;;6.07;;
19727;SDS011;10015;52.530;13.390;2024-01-15T01:13:53;13.70;;;6.03;;
19727;SDS011;10015;52.530;13.390;2024-01-15T01:16:22;13.57;;;6.07;;
19727;SDS011;10015;52.530;13.390;2024-01-15T01:18:47;12.80;;;5.70;;
19727;SDS011;10015;52.530;13.390;2024-01-15T01:21:13;14.20;;;6.03;;
19727;SDS011;10015;52.530;13.390;2024-01-15T01:23:40;11.80;;;5.60;;
19727;SDS011;10015;52.530;13.390;2024-01-15T01:26:06;11.70;;;5.47;;
19727;SDS011;10015;52.530;13.390;2024-01-15T01:28:32;12.57;;;5.80;;
19727;SDS011;10015;52.530;13.390;2024-01-15T01:30:58;12.63;;;5.50;;
19727;SDS011;10015;52.530;13.390;2024-01-15T01:33:24;12.53;;;5.73;;
19727;SDS011;10015;52.530;13.390;2024-01-15T01:35:50;12.80;;;6.50;;
19727;SDS011;10015;52.530;13.390;2024-01-15T01:38:16;13.60;;;6.10;;
19727;SDS011;10015;52.530;13.390;2024-01-15T01:40:42;13.63;;;5.87;;
19727;SDS011;10015;52.530;13.390;2024-01-15T01:43:09;11.87;;;5.33;;
19727;SDS011;10015;52.530;13.390;2024-01-15T01:45:35;14.03;;;5.77;;
19727;SDS011;10015;52.530;13.390;2024-01-15T01:48:01;12.27;;;5.73;;
19727;SDS011;10015;52.530;13.390;2024-01-15T01:50:29;11.63;;;5.27;;
19727;SDS011;10015;52.530;13.390;2024-01-15T01:52:56;12.90;;;5.73;;
19727;SDS011;10015;52.530;13.390;2024-01-15T01:55:23;10.27;;;5.17;;
19727;SDS011;10015;52.530;13.390;2024-01-15T01:57:51;12.93;;;5.60;;
19727;SDS011;10015;52.530;13.390;2024-01-15T02:00:17;11.73;;;5.87;;
19727;SDS011;10015;52.530;13.390;2024-01-15T02:02:43;12.67;;;5.53;;
19727;SDS011;10015;52.530;13.390;2024-01-15T02:05:10;10.80;;;5.40;;
19727;SDS011;10015;52.530;13.390;2024-01-15T02:07:37;11.30;;;5.40;;
19727;SDS011;10015;52.530;13.390;2024-01-15T02:10:03;15.63;;;6.63;;
19727;SDS011;10015;52.530;13.390;2024-01-15T02:12:31;12.63;;;6.00;;
19727;SDS011;10015;52.530;13.390;2024-01-15T02:14:57;14.03;;;6.10;;
19727;SDS011;10015;52.530;13.390;2024-01-15T02:17:23;13.90;;;6.60;;
19727;SDS011;10015;52.530;13.390;2024-01-15T02:19:49;14.97;;;5.90;;
19727;SDS011;10015;52.530;13.390;2024-01-15T02:22:16;13.67;;;5.07;;
19727;SDS011;10015;52.530;13.390;2024-01-15T02:24:42;12.10;;;5.70;;
19727;SDS011;10015;52.530;13.390;2024-01-15T02:27:08;9.97;;;4.93;;
19727;SDS011;10015;52.530;13.390;2024-01-15T02:29:34;7.77;;;4.47;;
19727;SDS011;10015;52.530;13.390;2024-01-15T02:32:04;11.17;;;4.70;;
19727;SDS011;10015;52.530;13.390;2024-01-15T02:34:34;10.77;;;5.10;;
19727;SDS011;10015;52.530;13.390;2024-01-15T02:37:00;10.27;;;4.70;;
19727;SDS011;10015;52.530;13.390;2024-01-15T02:39:26;12.00;;;4.73;;
19727;SDS011;10015;52.530;13.390;2024-01-15T02:41:51;10.07;;;4.73;;
19727;SDS011;10015;52.530;13.390;2024-01-15T02:44:18;9.47;;;4.53;;
19727;SDS011;10015;52.530;13.390;2024-01-15T02:46:43;11.57;;;4.63;;
19727;SDS011;10015;52.530;13.390;2024-01-15T02:49:09;12.03;;;5.13;;
19727;SDS011;10015;52.530;13.390;2024-01-15T02:51:35;10.33;;;4.53;;
19727;SDS011;10015;52.530;13.390;2024-01-15T02:54:01;9.27;;;4.70;;
19727;SDS011;10015;52.530;13.390;2024-01-15T02:56:28;8.97;;;4.33;;
19727;SDS011;10015;52.530;13.390;2024-01-15T02:58:53;7.00;;;3.80;;
19727;SDS011;10015;52.530;13.390;2024-01-15T03:01:19;9.43;;;4.60;;
19727;SDS011;10015;52.530;13.390;2024-01-15T03:03:45;11.03;;;4.60;;
19727;SDS011;10015;52.530;13.390;2024-01-15T03:06:11;11.57;;;4.07;;
19727;SDS011;10015;52.530;13.390;2024-01-15T03:08:37;10.17;;;4.53;;
19727;SDS011;10015;52.530;13.390;2024-01-15T03:11:03;9.20;;;4.57;;
19727;SDS011;10015;52.530;13.390;2024-01-15T03:13:29;10.33;;;4.67;;
19727;SDS011;10015;52.530;13.390;2024-01-15T03:15:55;9.20;;;4.70;;
19727;SDS011;10015;52.530;13.390;2024-01-15T03:18:21;7.77;;;3.93;;
19727;SDS011;10015;52.530;13.390;2024-01-15T03:20:47;6.87;;;3.93;;
19727;SDS011;10015;52.530;13.390;2024-01-15T03:23:13;9.33;;;4.30;;
19727;SDS011;10015;52.530;13.390;2024-01-15T03:25:38;11.40;;;4.13;;
19727;SDS011;10015;52.530;13.390;2024-01-15T03:28:04;8.27;;;3.70;;
19727;SDS011;10015;52.530;13.390;2024-01-15T03:30:30;9.40;;;3.93;;
19727;SDS011;10015;52.530;13.390;2024-01-15T03:32:56;10.20;;;4.33;;
19727;SDS011;10015;52.530;13.390;2024-01-15T03:35:22;8.50;;;3.80;;
19727;SDS011;10015;52.530;13.390;2024-01-15T03:37:48;11.33;;;3.73;;
19727;SDS011;10015;52.530;13.390;2024-01-15T03:40:14;7.93;;;3.80;;
19727;SDS011;10015;52.530;13.390;2024-01-15T03:42:39;10.07;;;3.73;;
19727;SDS011;10015;52.530;13.390;2024-01-15T03:45:05;10.90;;;3.80;;
19727;SDS011;10015;52.530;13.390;2024-01-15T03:47:32;9.87;;;4.03;;
19727;SDS011;10015;52.530;13.390;2024-01-15T03:49:58;8.80;;;3.43;;
19727;SDS011;10015;52.530;13.390;2024-01-15T03:52:23;9.53;;;3.70;;
19727;SDS011;10015;52.530;13.390;2024-01-15T03:54:49;8.67;;;3.47;;
19727;SDS011;10015;52.530;13.390;2024-01-15T03:57:15;7.70;;;3.73;;
19727;SDS011;10015;52.530;13.390;2024-01-15T03:59:41;8.87;;;3.47;;
19727;SDS011;10015;52.530;13.390;2024-01-15T04:02:07;8.10;;;3.50;;
19727;SDS011;10015;52.530;13.390;2024-01-15T04:04:33;9.40;;;3.80;;
19727;SDS011;10015;52.530;13.390;2024-01-15T04:06:58;7.70;;;2.90;;
19727;SDS011;10015;52.530;13.390;2024-01-15T04:09:24;11.07;;;3.70;;
19727;SDS011;10015;52.530;13.390;2024-01-15T04:11:50;8.70;;;3.63;;
19727;SDS011;10015;52.530;13.390;2024-01-15T04:14:16;8.93;;;3.63;;
19727;SDS011;10015;52.530;13.390;2024-01-15T04:16:42;8.43;;;3.97;;
19727;SDS011;10015;52.530;13.390;2024-01-15T04:19:08;10.00;;;3.47;;
19727;SDS011;10015;52.530;13.390;2024-01-15T04:21:33;11.07;;;3.27;;
19727;SDS011;10015;52.530;13.390;2024-01-15T04:23:59;6.90;;;3.50;;
19727;SDS011;10015;52.530;13.390;2024-01-15T04:26:25;11.00;;;4.30;;
19727;SDS011;10015;52.530;13.390;2024-01-15T04:28:51;7.33;;;3.70;;
19727;SDS011;10015;52.530;13.390;2024-01-15T04:31:22;9.33;;;3.87;;
19727;SDS011;10015;52.530;13.390;2024-01-15T04:33:49;11.33;;;3.20;;
19727;SDS011;10015;52.530;13.390;2024-01-15T04:36:14;7.47;;;3.00;;
19727;SDS011;10015;52.530;13.390;2024-01-15T04:38:40;7.90;;;3.10;;
19727;SDS011;10015;52.530;13.390;2024-01-15T04:41:09;7.30;;;2.43;;
19727;SDS011;10015;52.530;13.390;2024-01-15T04:43:36;7.73;;;2.73;;
19727;SDS011;10015;52.530;13.390;2024-01-15T04:46:02;7.40;;;2.93;;
19727;SDS011;10015;52.530;13.390;2024-01-15T04:48:30;8.93;;;3.00;;
19727;SDS011;10015;52.530;13.390;2024-01-15T04:50:56;11.03;;;3.37;;
19727;SDS011;10015;52.530;13.390;2024-01-15T04:53:22;7.17;;;2.70;;
19727;SDS011;10015;52.530;13.390;2024-01-15T04:55:48;9.00;;;2.60;;
19727;SDS011;10015;52.530;13.390;2024-01-15T04:58:13;7.63;;;2.87;;
19727;SDS011;10015;52.530;13.390;2024-01-15T05:00:39;6.93;;;2.80;;
19727;SDS011;10015;52.530;13.390;2024-01-15T05:03:05;5.07;;;2.43;;
19727;SDS011;10015;52.530;13.390;2024-01-15T05:05:31;6.27;;;2.30;;
19727;SDS011;10015;52.530;13.390;2024-01-15T05:07:57;6.90;;;2.40;;
19727;SDS011;10015;52.530;13.390;2024-01-15T05:10:23;6.63;;;2.00;;
19727;SDS011;10015;52.530;13.390;2024-01-15T05:12:49;5.83;;;2.03;;
19727;SDS011;10015;52.530;13.390;2024-01-15T05:15:14;4.80;;;1.97;;
19727;SDS011;10015;52.530;13.390;2024-01-15T05:17:40;5.47;;;2.17;;
19727;SDS011;10015;52.530;13.390;2024-01-15T05:20:06;7.63;;;2.00;;
19727;SDS011;10015;52.530;13.390;2024-01-15T05:22:32;6.53;;;1.90;;
19727;SDS011;10015;52.530;13.390;2024-01-15T05:25:00;7.97;;;2.07;;
19727;SDS011;10015;52.530;13.390;2024-01-15T05:27:26;7.33;;;2.03;;
19727;SDS011;10015;52.530;13.390;2024-01-15T05:29:52;6.67;;;2.20;;
19727;SDS011;10015;52.530;13.390;2024-01-15T05:32:18;8.37;;;2.30;;
19727;SDS011;10015;52.530;13.390;2024-01-15T05:34:44;5.20;;;1.83;;
19727;SDS011;10015;52.530;13.390;2024-01-15T05:37:09;6.90;;;1.87;;
19727;SDS011;10015;52.530;13.390;2024-01-15T05:39:35;7.97;;;2.30;;
19727;SDS011;10015;52.530;13.390;2024-01-15T05:42:02;5.73;;;1.80;;
19727;SDS011;10015;52.530;13.390;2024-01-15T05:44:28;9.80;;;2.17;;
19727;SDS011;10015;52.530;13.390;2024-01-15T05:46:54;5.53;;;1.83;;
19727;SDS011;10015;52.530;13.390;2024-01-15T05:49:20;3.00;;;1.60;;
19727;SDS011;10015;52.530;13.390;2024-01-15T05:51:46;6.57;;;1.70;;
19727;SDS011;10015;52.530;13.390;2024-01-15T05:54:12;4.77;;;2.10;;
19727;SDS011;10015;52.530;13.390;2024-01-15T05:56:37;3.73;;;1.70;;
19727;SDS011;10015;52.530;13.390;2024-01-15T05:59:05;6.73;;;1.90;;
19727;SDS011;10015;52.530;13.390;2024-01-15T06:01:31;5.50;;;1.90;;
19727;SDS011;10015;52.530;13.390;2024-01-15T06:03:57;5.03;;;1.70;;
19727;SDS011;10015;52.530;13.390;2024-01-15T06:06:23;4.83;;;1.47;;
19727;SDS011;10015;52.530;13.390;2024-01-15T06:08:49;4.17;;;2.00;;
19727;SDS011;10015;52.530;13.390;2024-01-15T06:11:14;11.63;;;1.83;;
19727;SDS011;10015;52.530;13.390;2024-01-15T06:13:40;5.97;;;2.00;;
19727;SDS011;10015;52.530;13.390;2024-01-15T06:16:13;8.43;;;1.63;;
19727;SDS011;10015;52.530;13.390;2024-01-15T06:18:41;6.77;;;1.30;;
19727;SDS011;10015;52.530;13.390;2024-01-15T06:21:06;3.77;;;1.60;;
19727;SDS011;10015;52.530;13.390;2024-01-15T06:23:32;9.53;;;1.43;;
19727;SDS011;10015;52.530;13.390;2024-01-15T06:25:58;4.60;;;1.23;;
19727;SDS011;10015;52.530;13.390;2024-01-15T06:28:24;7.60;;;1.40;;
19727;SDS011;10015;52.530;13.390;2024-01-15T06:30:51;6.87;;;1.20;;
19727;SDS011;10015;52.530;13.390;2024-01-15T06:33:17;6.13;;;1.50;;
19727;SDS011;10015;52.530;13.390;2024-01-15T06:35:42;7.53;;;1.80;;
19727;SDS011;10015;52.530;13.390;2024-01-15T06:38:08;2.73;;;1.37;;
19727;SDS011;10015;52.530;13.390;2024-01-15T06:40:34;6.20;;;1.80;;
19727;SDS011;10015;52.530;13.390;2024-01-15T06:43:00;4.20;;;1.40;;
19727;SDS011;10015;52.530;13.390;2024-01-15T06:45:26;5.43;;;1.23;;
19727;SDS011;10015;52.530;13.390;2024-01-15T06:47:52;4.17;;;1.70;;
19727;SDS011;10015;52.530;13.390;2024-01-15T06:50:18;6.87;;;1.30;;
19727;SDS011;10015;52.530;13.390;2024-01-15T06:52:44;5.93;;;1.60;;
19727;SDS011;10015;52.530;13.390;2024-01-15T06:55:10;7.73;;;1.40;;
19727;SDS011;10015;52.530;13.390;2024-01-15T06:57:36;6.30;;;1.47;;
19727;SDS011;10015;52.530;13.390;2024-01-15T07:00:02;6.60;;;1.10;;
19727;SDS011;10015;52.530;13.390;2024-01-15T07:02:32;5.13;;;1.43;;
19727;SDS011;10015;52.530;13.390;2024-01-15T07:04:58;2.47;;;1.30;;
19727;SDS011;10015;52.530;13.390;2024-01-15T07:07:24;3.17;;;1.10;;
19727;SDS011;10015;52.530;13.390;2024-01-15T07:09:54;8.67;;;1.67;;
19727;SDS011;10015;52.530;13.390;2024-01-15T07:12:20;5.63;;;1.30;;
19727;SDS011;10015;52.530;13.390;2024-01-15T07:14:45;8.13;;;1.20;;
19727;SDS011;10015;52.530;13.390;2024-01-15T07:17:11;7.90;;;1.27;;
19727;SDS011;10015;52.530;13.390;2024-01-15T07:19:37;9.10;;;1.10;;
19727;SDS011;10015;52.530;13.390;2024-01-15T07:22:04;3.73;;;1.00;;
19727;SDS011;10015;52.530;13.390;2024-01-15T07:24:31;4.77;;;1.33;;
19727;SDS011;10015;52.530;13.390;2024-01-15T07:26:59;3.37;;;0.90;;
19727;SDS011;10015;52.530;13.390;2024-01-15T07:29:26;9.23;;;1.50;;
19727;SDS011;10015;52.530;13.390;2024-01-15T07:31:52;10.87;;;1.20;;
19727;SDS011;10015;52.530;13.390;2024-01-15T07:34:18;8.07;;;1.53;;
19727;SDS011;10015;52.530;13.390;2024-01-15T07:36:44;8.97;;;1.20;;
19727;SDS011;10015;52.530;13.390;2024-01-15T07:39:13;9.20;;;1.40;;
19727;SDS011;10015;52.530;13.390;2024-01-15T07:41:40;8.57;;;1.53;;
19727;SDS011;10015;52.530;13.390;2024-01-15T07:44:06;7.03;;;1.10;;
19727;SDS011;10015;52.530;13.390;2024-01-15T07:46:32;6.80;;;1.03;;
19727;SDS011;10015;52.530;13.390;2024-01-15T07:48:59;4.67;;;1.10;;
19727;SDS011;10015;52.530;13.390;2024-01-15T07:51:24;6.30;;;1.20;;
19727;SDS011;10015;52.530;13.390;2024-01-15T07:53:52;6.57;;;1.53;;
19727;SDS011;10015;52.530;13.390;2024-01-15T07:56:18;10.77;;;1.80;;
19727;SDS011;10015;52.530;13.390;2024-01-15T07:58:44;8.13;;;1.20;;
19727;SDS011;10015;52.530;13.390;2024-01-15T08:01:10;9.40;;;1.17;;
19727;SDS011;10015;52.530;13.390;2024-01-15T08:03:38;8.90;;;2.30;;
19727;SDS011;10015;52.530;13.390;2024-01-15T08:06:05;7.03;;;1.30;;
19727;SDS011;10015;52.530;13.390;2024-01-15T08:08:31;7.13;;;1.43;;
19727;SDS011;10015;52.530;13.390;2024-01-15T08:10:57;5.20;;;1.13;;
19727;SDS011;10015;52.530;13.390;2024-01-15T08:13:26;5.23;;;1.33;;
19727;SDS011;10015;52.530;13.390;2024-01-15T08:15:53;5.30;;;1.20;;
19727;SDS011;10015;52.530;13.390;2024-01-15T08:18:19;3.70;;;1.10;;
19727;SDS011;10015;52.530;13.390;2024-01-15T08:20:47;8.03;;;1.20;;
19727;SDS011;10015;52.530;13.390;2024-01-15T08:23:13;9.63;;;1.43;;
19727;SDS011;10015;52.530;13.390;2024-01-15T08:25:39;6.77;;;1.40;;
19727;SDS011;10015;52.530;13.390;2024-01-15T08:28:05;6.17;;;1.50;;
19727;SDS011;10015;52.530;13.390;2024-01-15T08:30:31;6.87;;;1.30;;
19727;SDS011;10015;52.530;13.390;2024-01-15T08:32:57;5.47;;;1.23;;
19727;SDS011;10015;52.530;13.390;2024-01-15T08:35:24;4.00;;;1.23;;
19727;SDS011;10015;52.530;13.390;2024-01-15T08:37:50;3.93;;;1.00;;
19727;SDS011;10015;52.530;13.390;2024-01-15T08:40:17;6.17;;;1.13;;
19727;SDS011;10015;52.530;13.390;2024-01-15T08:42:43;3.33;;;1.20;;
19727;SDS011;10015;52.530;13.390;2024-01-15T08:45:10;5.23;;;1.20;;
19727;SDS011;10015;52.530;13.390;2024-01-15T08:47:37;4.67;;;1.20;;
19727;SDS011;10015;52.530;13.390;2024-01-15T08:50:03;7.23;;;1.20;;
19727;SDS011;10015;52.530;13.390;2024-01-15T08:52:30;7.60;;;1.70;;
19727;SDS011;10015;52.530;13.390;2024-01-15T08:54:57;7.80;;;2.00;;
19727;SDS011;10015;52.530;13.390;2024-01-15T08:57:23;8.63;;;1.37;;
19727;SDS011;10015;52.530;13.390;2024-01-15T08:59:49;11.97;;;3.40;;
19727;SDS011;10015;52.530;13.390;2024-01-15T09:02:16;8.63;;;2.77;;
19727;SDS011;10015;52.530;13.390;2024-01-15T09:04:42;6.30;;;1.70;;
19727;SDS011;10015;52.530;13.390;2024-01-15T09:07:08;6.77;;;1.80;;
19727;SDS011;10015;52.530;13.390;2024-01-15T09:09:34;4.57;;;1.37;;
19727;SDS011;10015;52.530;13.390;2024-01-15T09:12:02;4.63;;;1.70;;
19727;SDS011;10015;52.530;13.390;2024-01-15T09:14:28;7.80;;;1.23;;
19727;SDS011;10015;52.530;13.390;2024-01-15T09:16:54;6.77;;;1.40;;
19727;SDS011;10015;52.530;13.390;2024-01-15T09:19:21;10.07;;;1.67;;
19727;SDS011;10015;52.530;13.390;2024-01-15T09:21:47;11.60;;;1.57;;
19727;SDS011;10015;52.530;13.390;2024-01-15T09:24:13;8.70;;;1.70;;
19727;SDS011;10015;52.530;13.390;2024-01-15T09:26:39;9.90;;;1.60;;
19727;SDS011;10015;52.530;13.390;2024-01-15T09:29:06;7.03;;;1.57;;
19727;SDS011;10015;52.530;13.390;2024-01-15T09:31:32;6.27;;;1.53;;
19727;SDS011;10015;52.530;13.390;2024-01-15T09:33:58;4.80;;;1.90;;
19727;SDS011;10015;52.530;13.390;2024-01-15T09:36:25;6.30;;;1.60;;
19727;SDS011;10015;52.530;13.390;2024-01-15T09:38:52;13.07;;;1.70;;
19727;SDS011;10015;52.530;13.390;2024-01-15T09:41:18;6.70;;;1.27;;
19727;SDS011;10015;52.530;13.390;2024-01-15T09:43:44;7.33;;;1.40;;
19727;SDS011;10015;52.530;13.390;2024-01-15T09:46:11;6.23;;;1.57;;
19727;SDS011;10015;52.530;13.390;2024-01-15T09:48:37;5.10;;;1.57;;
19727;SDS011;10015;52.530;13.390;2024-01-15T09:51:04;5.00;;;1.13;;
19727;SDS011;10015;52.530;13.390;2024-01-15T09:53:33;3.93;;;1.00;;
19727;SDS011;10015;52.530;13.390;2024-01-15T09:56:03;3.33;;;0.90;;
19727;SDS011;10015;52.530;13.390;2024-01-15T09:58:30;4.63;;;1.03;;
19727;SDS011;10015;52.530;13.390;2024-01-15T10:00:57;3.27;;;1.30;;
19727;SDS011;10015;52.530;13.390;2024-01-15T10:03:24;10.40;;;2.20;;
19727;SDS011;10015;52.530;13.390;2024-01-15T10:05:50;3.93;;;1.43;;
19727;SDS011;10015;52.530;13.390;2024-01-15T10:08:16;4.80;;;1.07;;
19727;SDS011;10015;52.530;13.390;2024-01-15T10:10:44;3.33;;;0.97;;
19727;SDS011;10015;52.530;13.390;2024-01-15T10:13:10;8.30;;;1.30;;
19727;SDS011;10015;52.530;13.390;2024-01-15T10:15:40;4.27;;;1.00;;
19727;SDS011;10015;52.530;13.390;2024-01-15T10:18:12;3.03;;;1.43;;
19727;SDS011;10015;52.530;13.390;2024-01-15T10:20:39;2.73;;;1.10;;
19727;SDS011;10015;52.530;13.390;2024-01-15T10:23:06;3.07;;;1.00;;
19727;SDS011;10015;52.530;13.390;2024-01-15T10:25:32;8.67;;;2.43;;
19727;SDS011;10015;52.530;13.390;2024-01-15T10:28:02;4.30;;;1.10;;
19727;SDS011;10015;52.530;13.390;2024-01-15T10:30:30;5.10;;;1.50;;
19727;SDS011;10015;52.530;13.390;2024-01-15T10:32:58;3.07;;;0.90;;
19727;SDS011;10015;52.530;13.390;2024-01-15T10:35:29;9.57;;;1.23;;
19727;SDS011;10015;52.530;13.390;2024-01-15T10:37:56;3.27;;;1.27;;
19727;SDS011;10015;52.530;13.390;2024-01-15T10:40:22;5.50;;;1.00;;
19727;SDS011;10015;52.530;13.390;2024-01-15T10:42:49;4.60;;;1.10;;
19727;SDS011;10015;52.530;13.390;2024-01-15T10:45:15;9.40;;;2.53;;
19727;SDS011;10015;52.530;13.390;2024-01-15T10:47:45;4.50;;;1.40;;
19727;SDS011;10015;52.530;13.390;2024-01-15T10:50:11;4.83;;;1.10;;
19727;SDS011;10015;52.530;13.390;2024-01-15T10:52:38;4.10;;;1.00;;
19727;SDS011;10015;52.530;13.390;2024-01-15T10:55:09;3.47;;;1.20;;
19727;SDS011;10015;52.530;13.390;2024-01-15T10:57:36;4.90;;;0.97;;
19727;SDS011;10015;52.530;13.390;2024-01-15T11:00:03;3.87;;;1.10;;
19727;SDS011;10015;52.530;13.390;2024-01-15T11:02:32;4.00;;;0.80;;
19727;SDS011;10015;52.530;13.390;2024-01-15T11:04:59;3.97;;;0.93;;
19727;SDS011;10015;52.530;13.390;2024-01-15T11:07:26;4.20;;;0.83;;
19727;SDS011;10015;52.530;13.390;2024-01-15T11:09:55;2.97;;;0.90;;
19727;SDS011;10015;52.530;13.390;2024-01-15T11:12:24;3.63;;;1.13;;
19727;SDS011;10015;52.530;13.390;2024-01-15T11:14:50;4.17;;;0.80;;
19727;SDS011;10015;52.530;13.390;2024-01-15T11:17:18;3.87;;;0.90;;
19727;SDS011;10015;52.530;13.390;2024-01-15T11:19:46;2.63;;;1.00;;
19727;SDS011;10015;52.530;13.390;2024-01-15T11:22:47;3.77;;;0.80;;
19727;SDS011;10015;52.530;13.390;2024-01-15T11:25:14;1.37;;;0.70;;
19727;SDS011;10015;52.530;13.390;2024-01-15T11:27:50;2.20;;;0.90;;
19727;SDS011;10015;52.530;13.390;2024-01-15T11:30:18;3.07;;;0.93;;
19727;SDS011;10015;52.530;13.390;2024-01-15T11:32:51;2.87;;;1.17;;
19727;SDS011;10015;52.530;13.390;2024-01-15T11:35:17;6.37;;;2.67;;
19727;SDS011;10015;52.530;13.390;2024-01-15T11:42:58;4.47;;;0.80;;
19727;SDS011;10015;52.530;13.390;2024-01-15T11:45:24;2.97;;;0.87;;
19727;SDS011;10015;52.530;13.390;2024-01-15T11:50:39;5.33;;;1.27;;
19727;SDS011;10015;52.530;13.390;2024-01-15T11:53:16;2.40;;;1.23;;
19727;SDS011;10015;52.530;13.390;2024-01-15T11:55:49;1.53;;;0.87;;
19727;SDS011;10015;52.530;13.390;2024-01-15T11:58:18;1.97;;;0.80;;
19727;SDS011;10015;52.530;13.390;2024-01-15T12:00:47;1.93;;;0.90;;
19727;SDS011;10015;52.530;13.390;2024-01-15T12:03:22;2.60;;;1.73;;
19727;SDS011;10015;52.530;13.390;2024-01-15T12:05:48;3.23;;;1.67;;
19727;SDS011;10015;52.530;13.390;2024-01-15T12:08:14;3.07;;;1.23;;
19727;SDS011;10015;52.530;13.390;2024-01-15T12:10:45;1.83;;;1.10;;
19727;SDS011;10015;52.530;13.390;2024-01-15T12:15:38;1.50;;;1.03;;
19727;SDS011;10015;52.530;13.390;2024-01-15T12:18:07;3.47;;;1.13;;
19727;SDS011;10015;52.530;13.390;2024-01-15T12:20:34;1.60;;;1.00;;
19727;SDS011;10015;52.530;13.390;2024-01-15T12:23:01;4.60;;;2.03;;
19727;SDS011;10015;52.530;13.390;2024-01-15T12:25:35;5.13;;;2.20;;
19727;SDS011;10015;52.530;13.390;2024-01-15T12:28:03;3.73;;;1.03;;
19727;SDS011;10015;52.530;13.390;2024-01-15T12:30:30;1.13;;;0.90;;
19727;SDS011;10015;52.530;13.390;2024-01-15T12:33:03;1.60;;;0.83;;
19727;SDS011;10015;52.530;13.390;2024-01-15T12:35:30;4.63;;;0.90;;
19727;SDS011;10015;52.530;13.390;2024-01-15T12:37:57;3.83;;;1.30;;
19727;SDS011;10015;52.530;13.390;2024-01-15T12:40:25;1.33;;;0.90;;
19727;SDS011;10015;52.530;13.390;2024-01-15T12:42:52;2.33;;;0.90;;
19727;SDS011;10015;52.530;13.390;2024-01-15T12:45:18;1.53;;;0.90;;
19727;SDS011;10015;52.530;13.390;2024-01-15T12:47:45;1.87;;;0.97;;
19727;SDS011;10015;52.530;13.390;2024-01-15T12:50:12;3.83;;;1.10;;
19727;SDS011;10015;52.530;13.390;2024-01-15T12:52:40;1.40;;;0.73;;
19727;SDS011;10015;52.530;13.390;2024-01-15T12:55:07;1.83;;;1.20;;
19727;SDS011;10015;52.530;13.390;2024-01-15T12:57:34;3.57;;;1.00;;
19727;SDS011;10015;52.530;13.390;2024-01-15T13:00:01;1.87;;;0.90;;
19727;SDS011;10015;52.530;13.390;2024-01-15T13:02:33;2.80;;;0.77;;
19727;SDS011;10015;52.530;13.390;2024-01-15T13:04:59;1.93;;;1.23;;
19727;SDS011;10015;52.530;13.390;2024-01-15T13:07:26;1.77;;;0.90;;
19727;SDS011;10015;52.530;13.390;2024-01-15T13:09:53;2.63;;;1.37;;
19727;SDS011;10015;52.530;13.390;2024-01-15T13:12:19;2.67;;;1.53;;
19727;SDS011;10015;52.530;13.390;2024-01-15T13:14:46;2.20;;;1.13;;
19727;SDS011;10015;52.530;13.390;2024-01-15T13:17:15;1.63;;;0.80;;
19727;SDS011;10015;52.530;13.390;2024-01-15T13:19:42;2.00;;;1.17;;
19727;SDS011;10015;52.530;13.390;2024-01-15T13:22:08;1.13;;;1.00;;
19727;SDS011;10015;52.530;13.390;2024-01-15T13:24:37;1.07;;;0.90;;
19727;SDS011;10015;52.530;13.390;2024-01-15T13:27:04;2.57;;;1.13;;
19727;SDS011;10015;52.530;13.390;2024-01-15T13:29:31;3.53;;;1.20;;
19727;SDS011;10015;52.530;13.390;2024-01-15T13:31:58;1.87;;;1.00;;
19727;SDS011;10015;52.530;13.390;2024-01-15T13:34:25;3.30;;;1.20;;
19727;SDS011;10015;52.530;13.390;2024-01-15T13:36:51;2.40;;;1.20;;
19727;SDS011;10015;52.530;13.390;2024-01-15T13:39:18;1.93;;;1.30;;
19727;SDS011;10015;52.530;13.390;2024-01-15T13:41:48;1.70;;;1.10;;
19727;SDS011;10015;52.530;13.390;2024-01-15T13:44:15;1.57;;;1.00;;
19727;SDS011;10015;52.530;13.390;2024-01-15T13:46:41;1.90;;;0.90;;
19727;SDS011;10015;52.530;13.390;2024-01-15T13:49:07;2.97;;;1.10;;
19727;SDS011;10015;52.530;13.390;2024-01-15T13:51:35;2.60;;;0.90;;
19727;SDS011;10015;52.530;13.390;2024-01-15T13:54:02;2.17;;;0.80;;
19727;SDS011;10015;52.530;13.390;2024-01-15T13:56:30;5.00;;;1.00;;
19727;SDS011;10015;52.530;13.390;2024-01-15T13:58:58;1.53;;;0.70;;
19727;SDS011;10015;52.530;13.390;2024-01-15T14:01:25;3.37;;;1.00;;
19727;SDS011;10015;52.530;13.390;2024-01-15T14:03:53;2.43;;;1.10;;
19727;SDS011;10015;52.530;13.390;2024-01-15T14:06:19;1.83;;;0.93;;
19727;SDS011;10015;52.530;13.390;2024-01-15T14:08:46;2.67;;;0.97;;
19727;SDS011;10015;52.530;13.390;2024-01-15T14:11:12;2.90;;;1.20;;
19727;SDS011;10015;52.530;13.390;2024-01-15T14:13:38;2.67;;;1.10;;
19727;SDS011;10015;52.530;13.390;2024-01-15T14:16:04;4.43;;;1.30;;
19727;SDS011;10015;52.530;13.390;2024-01-15T14:18:31;4.93;;;1.10;;
19727;SDS011;10015;52.530;13.390;2024-01-15T14:20:58;1.73;;;0.97;;
19727;SDS011;10015;52.530;13.390;2024-01-15T14:23:24;5.23;;;1.20;;
19727;SDS011;10015;52.530;13.390;2024-01-15T14:25:51;5.70;;;1.37;;
19727;SDS011;10015;52.530;13.390;2024-01-15T14:28:17;3.47;;;0.87;;
19727;SDS011;10015;52.530;13.390;2024-01-15T14:30:43;4.10;;;1.10;;
19727;SDS011;10015;52.530;13.390;2024-01-15T14:33:10;2.30;;;0.80;;
19727;SDS011;10015;52.530;13.390;2024-01-15T14:35:36;1.80;;;0.70;;
19727;SDS011;10015;52.530;13.390;2024-01-15T14:38:02;4.27;;;0.80;;